Time;durP1;ratioP1;P1;durP2;ratioP2;P2;SDS_P1;SDS_P2;PMS_P1;PMS_P2;Temp;Humidity;BMP_temperature;BMP_pressure;BME280_temperature;BME280_humidity;BME280_pressure;Samples;Min_cycle;Max_cycle;Signal;HPM_P1;HPM_P2
2021/03/13 00:00:17;;;;;;;17.90;3.97;;;3.30;99.90;;;;;;4916013;29;20056;-68
2021/03/13 00:02:46;;;;;;;11.48;4.30;;;3.30;99.90;;;;;;4915941;29;20059;-65
2021/03/13 00:05:17;;;;;;;12.80;4.05;;;3.30;99.90;;;;;;4920200;29;20048;-69
2021/03/13 00:07:43;;;;;;;16.95;5.15;;;3.20;99.90;;;;;;4917850;29;20416;-69
2021/03/13 00:10:10;;;;;;;13.18;5.20;;;3.20;99.90;;;;;;4917572;29;20062;-66
2021/03/13 00:12:36;;;;;;;15.38;3.90;;;3.10;99.90;;;;;;4919306;29;20646;-68
2021/03/13 00:15:04;;;;;;;8.52;3.55;;;3.10;99.90;;;;;;4917501;29;20078;-64
2021/03/13 00:17:31;;;;;;;19.48;4.65;;;3.10;99.90;;;;;;4919449;29;20055;-66
2021/03/13 00:19:58;;;;;;;20.65;5.45;;;3.00;99.90;;;;;;4918150;29;22802;-66
2021/03/13 00:22:25;;;;;;;17.20;4.70;;;3.00;99.90;;;;;;4914190;29;20110;-66
2021/03/13 00:24:52;;;;;;;15.35;4.38;;;3.00;99.90;;;;;;4919309;29;20626;-67
2021/03/13 00:27:18;;;;;;;12.68;5.28;;;3.00;99.90;;;;;;4917105;29;20111;-67
2021/03/13 00:29:44;;;;;;;10.40;4.13;;;3.00;99.90;;;;;;4916899;29;20162;-71
2021/03/13 00:32:11;;;;;;;12.48;3.78;;;3.10;99.90;;;;;;4918035;29;20106;-69
2021/03/13 00:34:38;;;;;;;11.13;5.45;;;3.10;99.90;;;;;;4919392;29;20051;-67
2021/03/13 00:37:04;;;;;;;25.45;6.80;;;3.10;99.90;;;;;;4918436;29;20067;-69
2021/03/13 00:39:41;;;;;;;17.95;4.90;;;3.10;99.90;;;;;;4920170;29;20048;-68
2021/03/13 00:42:08;;;;;;;15.43;3.80;;;3.20;99.90;;;;;;4915465;29;20063;-68
2021/03/13 00:44:35;;;;;;;12.35;3.95;;;3.20;99.90;;;;;;4919527;29;20083;-68
2021/03/13 00:47:01;;;;;;;17.05;3.50;;;3.30;99.90;;;;;;4920240;29;20102;-65
2021/03/13 00:49:28;;;;;;;11.13;2.97;;;3.30;99.90;;;;;;4916896;29;20111;-70
2021/03/13 00:51:55;;;;;;;17.70;3.53;;;3.40;99.90;;;;;;4903707;29;20055;-68
2021/03/13 00:54:21;;;;;;;10.77;3.53;;;3.40;99.90;;;;;;4917786;29;20056;-67
2021/03/13 00:56:48;;;;;;;9.65;2.95;;;3.40;99.90;;;;;;4904779;29;20181;-65
2021/03/13 00:59:14;;;;;;;7.82;3.03;;;3.40;99.90;;;;;;4904787;29;20083;-65
2021/03/13 01:01:41;;;;;;;9.02;2.83;;;3.40;99.90;;;;;;4913765;29;20507;-65
2021/03/13 01:04:07;;;;;;;10.65;3.42;;;3.50;99.90;;;;;;4916273;29;20052;-66
2021/03/13 01:06:34;;;;;;;7.97;4.00;;;3.50;99.90;;;;;;4917997;29;20048;-67
2021/03/13 01:09:00;;;;;;;12.30;4.88;;;3.40;99.90;;;;;;4913849;29;20436;-65
2021/03/13 01:11:32;;;;;;;10.02;3.08;;;3.40;99.90;;;;;;4902023;29;20047;-67
2021/03/13 01:14:03;;;;;;;15.25;4.45;;;3.40;99.90;;;;;;4915198;29;20051;-65
2021/03/13 01:16:37;;;;;;;13.00;3.42;;;3.30;99.90;;;;;;4914748;29;20504;-66
2021/03/13 01:19:04;;;;;;;7.15;3.22;;;3.30;99.90;;;;;;4904911;29;20068;-66
2021/03/13 01:21:32;;;;;;;11.88;4.15;;;3.30;99.90;;;;;;4905485;29;20070;-69
2021/03/13 01:24:00;;;;;;;11.27;4.10;;;3.30;99.90;;;;;;4914054;29;20048;-66
2021/03/13 01:26:31;;;;;;;12.90;3.38;;;3.20;99.90;;;;;;4917310;29;20056;-64
2021/03/13 01:29:01;;;;;;;3.05;2.33;;;3.20;99.90;;;;;;4915428;29;20084;-65
2021/03/13 01:31:46;;;;;;;12.23;4.85;;;3.20;99.90;;;;;;4915143;29;20202;-68
2021/03/13 01:34:14;;;;;;;14.18;3.45;;;3.20;99.90;;;;;;4916205;29;20051;-67
2021/03/13 01:36:49;;;;;;;8.13;3.97;;;3.20;99.90;;;;;;4897414;29;20056;-65
2021/03/13 01:39:15;;;;;;;13.30;3.58;;;3.20;99.90;;;;;;4917342;29;20147;-67
2021/03/13 01:41:42;;;;;;;13.65;3.33;;;3.20;99.90;;;;;;4916019;28;20138;-69
2021/03/13 01:44:09;;;;;;;8.50;3.90;;;3.20;99.90;;;;;;4928241;28;20064;-65
2021/03/13 01:46:35;;;;;;;18.40;4.10;;;3.20;99.90;;;;;;4931930;28;20059;-67
2021/03/13 01:49:03;;;;;;;8.70;3.25;;;3.10;99.90;;;;;;4915981;29;20131;-65
2021/03/13 01:51:33;;;;;;;13.75;4.43;;;3.20;99.90;;;;;;4915956;29;20059;-65
2021/03/13 01:54:06;;;;;;;13.40;6.88;;;3.20;99.90;;;;;;4917679;29;20087;-69
2021/03/13 01:56:36;;;;;;;8.60;4.35;;;3.20;99.90;;;;;;4914514;29;20052;-69
2021/03/13 01:59:03;;;;;;;9.93;3.30;;;3.20;99.90;;;;;;4902063;29;20723;-66
2021/03/13 02:01:38;;;;;;;23.52;6.57;;;3.20;99.90;;;;;;4914725;29;20051;-67
2021/03/13 02:04:05;;;;;;;11.23;3.35;;;3.20;99.90;;;;;;4913597;28;20431;-68
2021/03/13 02:06:32;;;;;;;15.23;4.03;;;3.20;99.90;;;;;;4899198;29;20051;-66
2021/03/13 02:09:27;;;;;;;16.10;4.22;;;3.20;99.90;;;;;;4900379;29;20160;-65
2021/03/13 02:12:02;;;;;;;13.73;3.80;;;3.20;99.90;;;;;;4915507;28;20052;-66
2021/03/13 02:14:48;;;;;;;8.98;4.15;;;3.20;99.90;;;;;;4917531;29;20799;-68
2021/03/13 02:17:41;;;;;;;11.65;4.05;;;3.30;99.90;;;;;;4911722;29;20056;-67
2021/03/13 02:20:30;;;;;;;12.25;5.30;;;3.30;99.90;;;;;;4901808;29;20380;-65
2021/03/13 02:23:09;;;;;;;11.82;5.20;;;3.20;99.90;;;;;;4901047;29;20107;-68
2021/03/13 02:26:08;;;;;;;21.17;6.88;;;3.20;99.90;;;;;;4917298;29;20202;-66
2021/03/13 02:28:56;;;;;;;12.80;4.72;;;3.20;99.90;;;;;;4914160;28;20056;-67
2021/03/13 02:31:41;;;;;;;10.65;4.97;;;3.20;99.90;;;;;;4914694;29;20602;-68
2021/03/13 02:34:10;;;;;;;9.55;5.32;;;3.20;99.90;;;;;;4914531;29;20449;-67
2021/03/13 02:36:44;;;;;;;16.88;5.95;;;3.10;99.90;;;;;;4912681;29;20048;-65
2021/03/13 02:39:32;;;;;;;11.15;4.20;;;3.10;99.90;;;;;;4918749;29;20075;-69
2021/03/13 02:42:04;;;;;;;21.13;6.35;;;3.00;99.90;;;;;;4912357;29;20551;-66
2021/03/13 02:44:35;;;;;;;16.40;6.38;;;3.00;99.90;;;;;;4914241;29;20092;-68
2021/03/13 02:47:10;;;;;;;14.45;6.38;;;3.00;99.90;;;;;;4908641;29;21482;-68
2021/03/13 02:49:47;;;;;;;15.35;6.18;;;3.00;99.90;;;;;;4895784;29;20048;-67
2021/03/13 02:52:21;;;;;;;19.52;8.10;;;3.00;99.90;;;;;;4896540;29;20055;-67
2021/03/13 02:54:54;;;;;;;22.95;6.28;;;3.00;99.90;;;;;;4910313;29;20057;-68
2021/03/13 02:57:23;;;;;;;14.27;6.88;;;3.00;99.90;;;;;;4908089;29;20056;-70
2021/03/13 02:59:52;;;;;;;22.63;8.43;;;3.00;99.90;;;;;;4898184;29;20064;-70
2021/03/13 03:02:22;;;;;;;17.02;7.60;;;3.00;99.90;;;;;;4905299;29;20052;-68
2021/03/13 03:04:53;;;;;;;23.08;10.00;;;3.10;99.90;;;;;;4909408;29;20051;-66
2021/03/13 03:07:26;;;;;;;25.55;12.20;;;3.10;99.90;;;;;;4913035;29;20054;-65
2021/03/13 03:09:58;;;;;;;31.75;12.57;;;3.10;99.90;;;;;;4888443;29;20458;-68
2021/03/13 03:12:25;;;;;;;18.85;10.80;;;3.10;99.90;;;;;;4898224;29;20524;-70
2021/03/13 03:14:57;;;;;;;25.80;12.43;;;3.10;99.90;;;;;;4894862;29;20288;-66
2021/03/13 03:17:29;;;;;;;24.45;11.63;;;3.10;99.90;;;;;;4897334;29;20060;-65
2021/03/13 03:19:58;;;;;;;22.02;10.50;;;3.10;99.90;;;;;;4902213;29;20049;-68
2021/03/13 03:22:26;;;;;;;26.05;11.02;;;3.10;99.90;;;;;;4912563;29;20545;-68
2021/03/13 03:25:01;;;;;;;30.27;11.93;;;3.10;99.90;;;;;;4917170;28;20170;-66
2021/03/13 03:27:28;;;;;;;33.53;12.65;;;3.10;99.90;;;;;;4899916;29;20044;-66
2021/03/13 03:29:56;;;;;;;27.65;13.68;;;3.10;99.90;;;;;;4898532;29;20063;-65
2021/03/13 03:32:36;;;;;;;35.63;13.88;;;3.00;99.90;;;;;;4898950;29;20802;-66
2021/03/13 03:35:06;;;;;;;32.35;14.85;;;3.00;99.90;;;;;;4914884;29;20059;-67
2021/03/13 03:37:33;;;;;;;27.83;13.65;;;3.00;99.90;;;;;;4913110;29;20056;-68
2021/03/13 03:40:00;;;;;;;28.55;12.23;;;3.00;99.90;;;;;;4915401;29;20115;-70
2021/03/13 03:42:28;;;;;;;33.65;13.20;;;3.00;99.90;;;;;;4899151;29;20136;-68
2021/03/13 03:44:57;;;;;;;29.63;13.90;;;3.00;99.90;;;;;;4900196;29;20483;-67
2021/03/13 03:47:25;;;;;;;33.22;14.07;;;2.90;99.90;;;;;;4919847;28;20067;-65
2021/03/13 03:49:59;;;;;;;31.77;16.08;;;3.00;99.90;;;;;;4919181;29;20475;-68
2021/03/13 03:52:49;;;;;;;36.42;16.75;;;3.00;99.90;;;;;;4919805;29;20070;-65
2021/03/13 03:55:20;;;;;;;33.55;19.65;;;3.00;99.90;;;;;;4905299;29;20468;-65
2021/03/13 03:57:47;;;;;;;27.02;16.88;;;3.00;99.90;;;;;;4919236;29;20059;-67
2021/03/13 04:00:15;;;;;;;33.38;17.15;;;3.00;99.90;;;;;;4919252;29;20459;-69
2021/03/13 04:02:56;;;;;;;30.45;14.98;;;2.90;99.90;;;;;;4918814;29;20143;-65
2021/03/13 04:05:23;;;;;;;33.50;15.02;;;2.90;99.90;;;;;;4918342;29;20060;-66
2021/03/13 04:07:51;;;;;;;33.58;17.25;;;3.00;99.90;;;;;;4918110;29;20673;-67
2021/03/13 04:10:18;;;;;;;29.55;15.25;;;2.90;99.90;;;;;;4912754;29;20056;-67
2021/03/13 04:12:46;;;;;;;30.13;16.17;;;2.90;99.90;;;;;;4920016;29;20059;-66
2021/03/13 04:15:14;;;;;;;27.90;15.65;;;2.90;99.90;;;;;;4920130;29;20043;-68
2021/03/13 04:17:42;;;;;;;35.28;16.45;;;3.00;99.90;;;;;;4915377;29;20056;-68
2021/03/13 04:20:09;;;;;;;33.88;16.13;;;3.00;99.90;;;;;;4917211;29;20131;-66
2021/03/13 04:22:37;;;;;;;37.17;14.82;;;3.00;99.90;;;;;;4920642;29;20044;-67
2021/03/13 04:25:06;;;;;;;31.13;16.67;;;3.00;99.90;;;;;;4917960;29;20567;-68
2021/03/13 04:27:33;;;;;;;38.33;18.42;;;3.00;99.90;;;;;;4919723;29;20420;-65
2021/03/13 04:30:00;;;;;;;29.65;16.67;;;3.00;99.90;;;;;;4912307;29;20126;-68
2021/03/13 04:32:27;;;;;;;31.92;17.83;;;3.00;99.90;;;;;;4916972;29;20058;-66
2021/03/13 04:34:56;;;;;;;31.20;16.45;;;3.00;99.90;;;;;;4919412;29;20062;-65
2021/03/13 04:37:24;;;;;;;37.78;16.98;;;2.90;99.90;;;;;;4917626;29;20051;-66
2021/03/13 04:39:51;;;;;;;29.65;16.23;;;3.00;99.90;;;;;;4918909;29;20115;-66
2021/03/13 04:42:18;;;;;;;35.83;17.30;;;3.00;99.90;;;;;;4915128;29;20067;-65
2021/03/13 04:44:44;;;;;;;38.08;18.30;;;3.00;99.90;;;;;;4915567;29;20082;-66
2021/03/13 04:47:12;;;;;;;37.45;20.00;;;3.00;99.90;;;;;;4919284;29;20051;-67
2021/03/13 04:49:38;;;;;;;37.83;18.50;;;2.90;99.90;;;;;;4916971;29;20084;-68
2021/03/13 04:52:05;;;;;;;39.25;20.60;;;2.90;99.90;;;;;;4916576;29;20106;-65
2021/03/13 04:54:33;;;;;;;36.15;20.00;;;2.90;99.90;;;;;;4917405;29;20063;-68
2021/03/13 04:56:59;;;;;;;32.30;19.00;;;3.00;99.90;;;;;;4914754;29;20151;-70
2021/03/13 04:59:26;;;;;;;34.85;19.20;;;3.00;99.90;;;;;;4919176;29;20597;-67
2021/03/13 05:01:52;;;;;;;31.77;19.02;;;2.90;99.90;;;;;;4913823;29;20115;-66
2021/03/13 05:04:19;;;;;;;30.83;17.33;;;3.00;99.90;;;;;;4917346;29;20055;-70
2021/03/13 05:06:45;;;;;;;34.70;17.85;;;2.90;99.90;;;;;;4917919;29;20583;-65
2021/03/13 05:09:12;;;;;;;26.52;16.40;;;2.90;99.90;;;;;;4917601;29;20059;-71
2021/03/13 05:11:38;;;;;;;26.73;16.88;;;3.00;99.90;;;;;;4912961;29;20075;-66
2021/03/13 05:14:05;;;;;;;26.17;15.20;;;2.90;99.90;;;;;;4918021;29;20052;-65
2021/03/13 05:16:31;;;;;;;30.65;16.10;;;3.00;99.90;;;;;;4917032;29;20063;-71
2021/03/13 05:18:58;;;;;;;22.90;13.95;;;2.90;99.90;;;;;;4917713;29;20052;-66
2021/03/13 05:21:25;;;;;;;20.67;13.77;;;2.90;99.90;;;;;;4916101;29;20076;-66
2021/03/13 05:23:51;;;;;;;19.13;11.65;;;2.90;99.90;;;;;;4915140;29;20534;-65
2021/03/13 05:26:19;;;;;;;21.13;11.98;;;2.90;99.90;;;;;;4916160;29;20126;-67
2021/03/13 05:28:46;;;;;;;22.80;11.75;;;2.90;99.90;;;;;;4916225;29;20051;-69
2021/03/13 05:31:12;;;;;;;20.42;12.48;;;2.90;99.90;;;;;;4916959;29;20052;-68
2021/03/13 05:33:54;;;;;;;18.88;11.75;;;2.90;99.90;;;;;;4917760;29;20103;-66
2021/03/13 05:36:21;;;;;;;12.98;9.05;;;2.90;99.90;;;;;;4914957;29;20109;-68
2021/03/13 05:38:47;;;;;;;14.18;8.32;;;2.90;99.90;;;;;;4916691;29;20495;-68
2021/03/13 05:41:15;;;;;;;17.58;9.23;;;2.90;99.90;;;;;;4914969;29;20374;-66
2021/03/13 05:43:42;;;;;;;13.38;8.07;;;2.90;99.90;;;;;;4914235;29;20056;-66
2021/03/13 05:46:09;;;;;;;15.00;7.95;;;2.90;99.90;;;;;;4914652;29;20640;-65
2021/03/13 05:48:36;;;;;;;12.95;6.35;;;2.90;99.90;;;;;;4916993;29;20054;-65
2021/03/13 05:51:03;;;;;;;9.10;6.07;;;2.80;99.90;;;;;;4914145;29;20134;-66
2021/03/13 05:53:31;;;;;;;11.73;5.45;;;2.80;99.90;;;;;;4902533;29;20051;-69
2021/03/13 05:55:58;;;;;;;8.93;5.70;;;2.70;99.90;;;;;;4915429;29;20505;-67
2021/03/13 05:58:25;;;;;;;8.57;5.10;;;2.70;99.90;;;;;;4914672;29;20147;-66
2021/03/13 06:00:51;;;;;;;6.82;5.97;;;2.60;99.90;;;;;;4916775;29;20637;-64
2021/03/13 06:03:17;;;;;;;4.93;4.07;;;2.60;99.90;;;;;;4916816;29;20126;-70
2021/03/13 06:05:45;;;;;;;7.10;4.40;;;2.50;99.90;;;;;;4916338;29;20055;-66
2021/03/13 06:08:15;;;;;;;4.93;4.32;;;2.40;99.90;;;;;;4915983;29;20055;-67
2021/03/13 06:10:41;;;;;;;6.55;3.72;;;2.30;99.90;;;;;;4913045;29;20055;-69
2021/03/13 06:13:09;;;;;;;4.40;3.65;;;2.30;99.90;;;;;;4915979;29;20056;-68
2021/03/13 06:15:36;;;;;;;6.60;3.63;;;2.30;99.90;;;;;;4917692;29;20052;-69
2021/03/13 06:18:04;;;;;;;6.88;3.85;;;2.20;99.90;;;;;;4912782;29;20104;-68
2021/03/13 06:20:38;;;;;;;4.85;3.65;;;2.20;99.90;;;;;;4917015;29;20083;-67
2021/03/13 06:23:07;;;;;;;5.45;3.60;;;2.10;99.90;;;;;;4916679;29;20055;-67
2021/03/13 06:25:37;;;;;;;6.13;3.92;;;2.10;99.90;;;;;;4915802;29;20074;-66
2021/03/13 06:28:15;;;;;;;6.10;4.22;;;2.10;99.90;;;;;;4917547;29;20052;-68
2021/03/13 06:30:46;;;;;;;5.68;4.18;;;2.10;99.90;;;;;;4912571;29;20808;-65
2021/03/13 06:33:19;;;;;;;7.15;4.82;;;2.10;99.90;;;;;;4916073;29;20645;-67
2021/03/13 06:36:06;;;;;;;6.63;4.32;;;2.00;99.90;;;;;;4917861;29;20106;-66
2021/03/13 06:38:35;;;;;;;8.18;5.35;;;2.00;99.90;;;;;;4913948;29;20110;-65
2021/03/13 06:41:16;;;;;;;8.52;6.30;;;1.90;99.90;;;;;;4915500;29;20159;-65
2021/03/13 06:44:01;;;;;;;8.45;6.03;;;1.90;99.90;;;;;;4913897;29;20129;-66
2021/03/13 06:46:29;;;;;;;8.82;5.82;;;1.90;99.90;;;;;;4916632;28;20052;-65
2021/03/13 06:48:57;;;;;;;11.07;7.68;;;2.00;99.90;;;;;;4916444;29;20092;-66
2021/03/13 06:51:26;;;;;;;7.85;6.00;;;2.00;99.90;;;;;;4910224;29;20523;-66
2021/03/13 06:54:16;;;;;;;10.30;6.70;;;2.10;99.90;;;;;;4916073;29;20052;-65
2021/03/13 06:57:05;;;;;;;9.25;6.15;;;2.10;99.90;;;;;;4916934;29;20059;-68
2021/03/13 06:59:37;;;;;;;9.75;6.25;;;2.10;99.90;;;;;;4916871;29;20827;-68
2021/03/13 07:02:09;;;;;;;11.95;7.72;;;2.20;99.90;;;;;;4915703;29;20048;-70
2021/03/13 07:04:42;;;;;;;13.13;5.80;;;2.30;99.90;;;;;;4916297;29;20151;-68
2021/03/13 07:07:29;;;;;;;8.38;6.57;;;2.40;99.90;;;;;;4917497;29;20051;-69
2021/03/13 07:09:57;;;;;;;8.95;6.55;;;2.40;99.90;;;;;;4913601;29;20138;-66
2021/03/13 07:12:35;;;;;;;14.98;7.57;;;2.50;99.90;;;;;;4911480;29;20257;-66
2021/03/13 07:15:18;;;;;;;8.63;6.65;;;2.50;99.90;;;;;;4917112;29;20511;-68
2021/03/13 07:17:55;;;;;;;8.77;7.25;;;2.60;99.90;;;;;;4913361;29;20071;-68
2021/03/13 07:20:30;;;;;;;10.90;6.72;;;2.60;99.90;;;;;;4910349;29;20999;-68
2021/03/13 07:23:03;;;;;;;8.63;6.85;;;2.70;99.90;;;;;;4913212;29;20072;-68
2021/03/13 07:25:30;;;;;;;8.70;6.88;;;2.80;99.90;;;;;;4912099;29;20078;-65
2021/03/13 07:28:01;;;;;;;12.77;7.53;;;2.80;99.90;;;;;;4912958;29;20138;-70
2021/03/13 07:30:29;;;;;;;11.38;7.13;;;2.90;99.90;;;;;;4913183;29;20058;-69
2021/03/13 07:33:04;;;;;;;13.43;8.05;;;2.90;99.90;;;;;;4914662;29;20579;-70
2021/03/13 07:35:49;;;;;;;11.80;7.57;;;3.00;99.90;;;;;;4916412;29;20060;-66
2021/03/13 07:38:17;;;;;;;8.82;6.85;;;3.10;99.90;;;;;;4911554;29;20186;-66
2021/03/13 07:40:46;;;;;;;11.48;8.98;;;3.20;99.90;;;;;;4915479;29;20064;-69
2021/03/13 07:43:14;;;;;;;11.20;7.90;;;3.30;99.90;;;;;;4916574;29;20062;-70
2021/03/13 07:45:41;;;;;;;10.10;6.88;;;3.40;99.90;;;;;;4914954;29;20051;-69
2021/03/13 07:48:09;;;;;;;9.98;6.63;;;3.50;99.90;;;;;;4914220;29;20055;-68
2021/03/13 07:50:36;;;;;;;13.02;6.85;;;3.60;99.90;;;;;;4913973;29;20079;-70
2021/03/13 07:53:05;;;;;;;13.25;6.70;;;3.60;99.90;;;;;;4915220;29;20099;-67
2021/03/13 07:55:32;;;;;;;10.75;7.18;;;3.70;99.90;;;;;;4914484;29;20044;-68
2021/03/13 07:57:59;;;;;;;8.80;6.72;;;3.80;99.90;;;;;;4912413;29;20107;-68
2021/03/13 08:00:47;;;;;;;10.23;4.32;;;3.90;99.90;;;;;;4914239;29;20063;-70
2021/03/13 08:03:32;;;;;;;7.10;4.22;;;3.90;99.90;;;;;;4919876;29;20139;-66
2021/03/13 08:06:01;;;;;;;6.40;3.92;;;4.00;99.90;;;;;;4916269;29;20047;-65
2021/03/13 08:08:36;;;;;;;5.15;4.10;;;4.20;99.90;;;;;;4919064;29;20083;-67
2021/03/13 08:11:04;;;;;;;3.63;2.83;;;4.20;99.90;;;;;;4917996;29;20866;-69
2021/03/13 08:13:30;;;;;;;4.10;2.70;;;4.40;99.90;;;;;;4917959;29;20051;-68
2021/03/13 08:16:11;;;;;;;5.57;2.72;;;4.40;99.90;;;;;;4933222;28;20787;-66
2021/03/13 08:18:42;;;;;;;1.50;1.40;;;4.50;99.90;;;;;;4902874;29;20430;-69
2021/03/13 08:21:23;;;;;;;3.47;1.65;;;4.50;99.90;;;;;;4919188;29;20048;-68
2021/03/13 08:23:53;;;;;;;6.75;1.63;;;4.60;99.90;;;;;;4919938;29;20461;-68
2021/03/13 08:26:20;;;;;;;;;;;4.50;99.90;;;;;;4915632;29;20441;-67
2021/03/13 08:28:47;;;;;;;7.10;2.85;;;4.50;99.90;;;;;;4919905;29;19927;-69
2021/03/13 08:31:23;;;;;;;2.38;1.48;;;4.50;99.90;;;;;;4901406;29;20133;-70
2021/03/13 08:33:50;;;;;;;3.25;2.03;;;4.50;99.90;;;;;;4916522;29;20052;-68
2021/03/13 08:36:19;;;;;;;4.93;3.33;;;4.40;99.90;;;;;;4914733;29;20062;-68
2021/03/13 08:38:59;;;;;;;6.22;2.75;;;4.40;99.90;;;;;;4917300;29;20437;-69
2021/03/13 08:41:43;;;;;;;5.13;3.28;;;4.30;99.90;;;;;;4916494;29;20062;-66
2021/03/13 08:44:16;;;;;;;5.57;4.13;;;4.20;99.90;;;;;;4915133;29;20060;-67
2021/03/13 08:46:56;;;;;;;5.47;4.13;;;4.00;99.90;;;;;;4916923;29;20056;-69
2021/03/13 08:49:26;;;;;;;5.50;3.55;;;4.00;99.90;;;;;;4919573;28;20598;-68
2021/03/13 08:52:05;;;;;;;5.38;3.40;;;3.90;99.90;;;;;;4913722;29;20103;-68
2021/03/13 08:54:45;;;;;;;6.05;3.83;;;3.90;99.90;;;;;;4918401;29;20178;-69
2021/03/13 08:57:13;;;;;;;9.40;4.22;;;3.80;99.90;;;;;;4918143;29;20055;-68
2021/03/13 08:59:59;;;;;;;5.05;3.85;;;3.80;99.90;;;;;;4918815;29;20063;-66
2021/03/13 09:02:29;;;;;;;4.78;4.03;;;3.70;99.90;;;;;;4917232;29;20043;-69
2021/03/13 09:05:05;;;;;;;4.53;2.97;;;3.70;99.90;;;;;;4916633;29;20115;-69
2021/03/13 09:07:31;;;;;;;6.65;3.92;;;3.70;99.90;;;;;;4919918;29;20056;-66
2021/03/13 09:09:58;;;;;;;5.10;3.45;;;3.70;99.90;;;;;;4914652;29;20743;-68
2021/03/13 09:12:27;;;;;;;5.35;3.40;;;3.60;99.90;;;;;;4914205;29;20484;-66
2021/03/13 09:15:04;;;;;;;3.97;3.25;;;3.60;99.90;;;;;;4916862;29;20123;-71
2021/03/13 09:17:31;;;;;;;3.63;3.00;;;3.60;99.90;;;;;;4913754;29;20059;-66
2021/03/13 09:20:08;;;;;;;4.13;2.88;;;3.50;99.90;;;;;;4915040;29;20058;-70
2021/03/13 09:22:38;;;;;;;5.75;3.70;;;3.50;99.90;;;;;;4920184;29;20058;-66
2021/03/13 09:25:13;;;;;;;14.32;5.75;;;3.50;99.90;;;;;;4917283;29;20071;-71
2021/03/13 09:27:41;;;;;;;7.55;4.82;;;3.50;99.90;;;;;;4918394;29;20071;-69
2021/03/13 09:30:09;;;;;;;9.27;5.13;;;3.60;99.90;;;;;;4919403;29;20083;-69
2021/03/13 09:32:42;;;;;;;7.18;5.88;;;3.60;99.90;;;;;;4916989;29;20059;-70
2021/03/13 09:35:09;;;;;;;7.80;5.82;;;3.40;99.90;;;;;;4918339;29;20142;-66
2021/03/13 09:37:36;;;;;;;8.20;4.95;;;3.40;99.90;;;;;;4918841;29;20504;-68
2021/03/13 09:40:05;;;;;;;8.63;4.63;;;3.30;99.90;;;;;;4917487;29;20131;-69
2021/03/13 09:42:31;;;;;;;9.90;6.13;;;3.20;99.90;;;;;;4919064;29;20048;-66
2021/03/13 09:45:00;;;;;;;7.85;4.38;;;3.20;99.90;;;;;;4904195;29;20059;-68
2021/03/13 09:47:32;;;;;;;4.43;3.47;;;3.20;99.90;;;;;;4919298;29;20056;-70
2021/03/13 09:50:02;;;;;;;6.10;5.03;;;3.20;99.90;;;;;;4913813;29;20130;-68
2021/03/13 09:52:33;;;;;;;5.05;4.45;;;3.10;99.90;;;;;;4912784;29;20048;-67
2021/03/13 09:55:04;;;;;;;7.07;4.85;;;3.00;99.90;;;;;;4923685;29;20048;-68
2021/03/13 09:57:30;;;;;;;;;;;3.00;99.90;;;;;;4928839;29;20058;-72
2021/03/13 09:59:58;;;;;;;6.82;4.50;;;2.90;99.90;;;;;;4897174;29;21601;-68
2021/03/13 10:02:25;;;;;;;7.85;4.40;;;2.80;99.90;;;;;;4910307;29;20059;-66
2021/03/13 10:04:53;;;;;;;5.43;4.88;;;2.70;99.90;;;;;;4916547;29;20063;-66
2021/03/13 10:07:28;;;;;;;7.38;4.28;;;2.70;99.90;;;;;;4915665;29;20408;-66
2021/03/13 10:09:57;;;;;;;6.45;3.72;;;2.60;99.90;;;;;;4918786;29;20083;-66
2021/03/13 10:12:25;;;;;;;5.43;4.05;;;2.60;99.90;;;;;;4914469;29;20059;-63
2021/03/13 10:14:52;;;;;;;3.53;2.05;;;2.60;99.90;;;;;;4917386;29;20134;-64
2021/03/13 10:17:19;;;;;;;2.45;1.98;;;2.50;99.90;;;;;;4914940;29;20537;-64
2021/03/13 10:19:46;;;;;;;3.88;2.28;;;2.40;99.90;;;;;;4917760;29;20060;-65
2021/03/13 10:22:18;;;;;;;4.47;2.58;;;2.30;99.90;;;;;;4915763;29;20064;-65
2021/03/13 10:24:53;;;;;;;3.28;1.83;;;2.30;99.90;;;;;;4913975;29;20056;-64
2021/03/13 10:27:25;;;;;;;1.85;1.73;;;2.20;99.90;;;;;;4917860;29;20058;-66
2021/03/13 10:29:54;;;;;;;3.83;3.45;;;2.30;99.90;;;;;;4920441;29;20106;-66
2021/03/13 10:32:25;;;;;;;3.60;1.65;;;2.20;99.90;;;;;;4932283;28;20060;-66
2021/03/13 10:35:28;;;;;;;5.20;1.83;;;2.20;99.90;;;;;;4913633;29;20043;-66
2021/03/13 10:37:58;;;;;;;3.70;2.17;;;2.20;99.90;;;;;;4861424;29;20084;-63
2021/03/13 10:40:28;;;;;;;5.70;1.58;;;2.20;99.90;;;;;;4905623;29;20055;-67
2021/03/13 10:43:18;;;;;;;3.55;1.55;;;2.20;99.90;;;;;;4919609;29;20048;-63
2021/03/13 10:46:01;;;;;;;3.63;1.97;;;2.20;99.90;;;;;;4917235;29;20056;-69
2021/03/13 10:48:30;;;;;;;2.30;1.30;;;2.20;99.90;;;;;;4915645;29;20129;-64
2021/03/13 10:50:57;;;;;;;3.70;1.40;;;2.20;99.90;;;;;;4917937;29;20075;-65
2021/03/13 10:53:32;;;;;;;3.10;1.23;;;2.20;99.90;;;;;;4913780;29;20060;-64
2021/03/13 10:56:01;;;;;;;2.40;1.40;;;2.10;99.90;;;;;;4918414;29;20051;-64
2021/03/13 10:58:30;;;;;;;3.37;1.17;;;2.10;99.90;;;;;;4915827;29;20467;-64
2021/03/13 11:00:58;;;;;;;4.25;1.05;;;2.10;99.90;;;;;;4918070;29;20048;-63
2021/03/13 11:03:25;;;;;;;1.80;1.15;;;2.10;99.90;;;;;;4918525;29;20060;-63
2021/03/13 11:05:53;;;;;;;2.38;2.17;;;2.00;99.90;;;;;;4912793;29;20107;-66
2021/03/13 11:08:21;;;;;;;2.08;1.35;;;2.00;99.90;;;;;;4914459;29;21256;-64
2021/03/13 11:10:48;;;;;;;4.82;1.85;;;2.00;99.90;;;;;;4915895;29;20074;-65
2021/03/13 11:13:15;;;;;;;3.28;1.98;;;2.00;99.90;;;;;;4913478;29;20110;-64
2021/03/13 11:15:42;;;;;;;4.40;2.10;;;2.10;99.90;;;;;;4916612;29;20079;-63
2021/03/13 11:18:09;;;;;;;6.13;2.75;;;2.20;99.90;;;;;;4913910;29;20043;-64
2021/03/13 11:20:36;;;;;;;5.68;3.03;;;2.30;99.90;;;;;;4914792;29;20891;-64
2021/03/13 11:23:03;;;;;;;5.13;2.22;;;2.40;99.90;;;;;;4917500;29;20052;-66
2021/03/13 11:25:30;;;;;;;6.47;2.13;;;2.60;99.90;;;;;;4915917;29;20105;-63
2021/03/13 11:27:56;;;;;;;5.60;3.58;;;2.70;99.90;;;;;;4917793;29;20048;-64
2021/03/13 11:30:24;;;;;;;5.95;2.10;;;2.90;99.90;;;;;;4917934;29;20479;-63
2021/03/13 11:32:51;;;;;;;6.32;2.35;;;3.10;99.90;;;;;;4908740;29;20480;-63
2021/03/13 11:35:20;;;;;;;13.43;3.05;;;3.20;99.90;;;;;;4917409;29;20741;-64
2021/03/13 11:37:47;;;;;;;5.82;2.78;;;3.30;99.90;;;;;;4919229;29;20055;-66
2021/03/13 11:40:15;;;;;;;3.30;2.65;;;3.40;99.90;;;;;;4918050;29;20073;-64
2021/03/13 11:42:42;;;;;;;8.68;2.53;;;3.40;99.90;;;;;;4918709;29;20051;-63
2021/03/13 11:45:13;;;;;;;8.27;2.42;;;3.50;99.90;;;;;;4914059;29;20056;-67
2021/03/13 11:47:40;;;;;;;7.07;3.22;;;3.60;99.90;;;;;;4917600;29;20052;-64
2021/03/13 11:50:10;;;;;;;8.15;3.80;;;3.90;99.90;;;;;;4917155;29;20058;-63
2021/03/13 11:52:37;;;;;;;6.45;2.33;;;3.90;99.90;;;;;;4930474;28;20079;-63
2021/03/13 11:55:05;;;;;;;5.97;2.85;;;3.90;99.90;;;;;;4919852;29;20047;-65
2021/03/13 11:57:31;;;;;;;8.85;3.22;;;3.80;99.90;;;;;;4919347;29;20694;-65
2021/03/13 11:59:58;;;;;;;5.20;2.72;;;3.90;99.90;;;;;;4914938;29;20062;-66
2021/03/13 12:02:24;;;;;;;8.68;2.70;;;4.00;99.90;;;;;;4919928;29;20056;-64
2021/03/13 12:04:51;;;;;;;7.18;2.17;;;4.20;99.90;;;;;;4918525;29;20047;-66
2021/03/13 12:07:18;;;;;;;6.25;2.20;;;4.30;99.90;;;;;;4917627;29;20048;-66
2021/03/13 12:09:45;;;;;;;5.82;2.33;;;4.50;99.90;;;;;;4919364;29;20419;-64
2021/03/13 12:12:11;;;;;;;10.82;3.08;;;4.60;99.90;;;;;;4911716;29;20059;-64
2021/03/13 12:14:38;;;;;;;6.75;2.75;;;4.60;99.90;;;;;;4917896;29;20713;-64
2021/03/13 12:17:10;;;;;;;8.60;2.40;;;4.70;99.90;;;;;;4921758;29;20067;-64
2021/03/13 12:19:39;;;;;;;5.03;2.22;;;4.70;99.90;;;;;;4919747;29;20062;-64
2021/03/13 12:22:06;;;;;;;6.50;2.60;;;4.70;99.90;;;;;;4920205;29;20059;-63
2021/03/13 12:24:33;;;;;;;4.78;2.00;;;4.70;99.90;;;;;;4902394;29;20773;-63
2021/03/13 12:27:00;;;;;;;10.23;2.28;;;4.80;99.90;;;;;;4914980;29;20063;-64
2021/03/13 12:29:27;;;;;;;5.88;1.85;;;4.90;99.90;;;;;;4919290;29;20062;-65
2021/03/13 12:31:54;;;;;;;8.93;2.72;;;5.00;99.90;;;;;;4916803;29;20063;-63
2021/03/13 12:34:21;;;;;;;6.55;2.45;;;5.00;99.90;;;;;;4917808;29;20052;-63
2021/03/13 12:36:47;;;;;;;4.68;2.00;;;5.00;99.90;;;;;;4916071;29;20051;-64
2021/03/13 12:39:16;;;;;;;7.55;2.20;;;5.10;99.90;;;;;;4914965;29;20059;-63
2021/03/13 12:41:44;;;;;;;7.72;2.90;;;5.00;99.90;;;;;;4917665;29;20160;-63
2021/03/13 12:44:12;;;;;;;10.35;5.40;;;5.00;99.90;;;;;;4918619;29;20072;-64
2021/03/13 12:46:39;;;;;;;7.22;2.78;;;4.90;99.90;;;;;;4913871;29;20097;-64
2021/03/13 12:49:06;;;;;;;3.33;2.35;;;4.80;99.90;;;;;;4916063;29;20044;-65
2021/03/13 12:51:33;;;;;;;8.93;2.20;;;4.80;99.90;;;;;;4912627;29;20044;-63
2021/03/13 12:53:59;;;;;;;7.28;2.70;;;4.80;99.90;;;;;;4915423;28;20139;-65
2021/03/13 12:56:26;;;;;;;6.28;2.15;;;4.90;99.90;;;;;;4916371;29;20087;-63
2021/03/13 12:58:52;;;;;;;5.10;1.73;;;4.80;99.90;;;;;;4913693;29;20189;-64
2021/03/13 13:01:19;;;;;;;3.80;2.55;;;4.80;99.90;;;;;;4914808;29;20122;-63
2021/03/13 13:03:54;;;;;;;9.32;2.05;;;4.90;99.90;;;;;;4914741;29;20055;-63
2021/03/13 13:06:20;;;;;;;3.10;2.17;;;4.80;99.90;;;;;;4914114;29;20837;-63